Time;durP1;ratioP1;P1;durP2;ratioP2;P2;SDS_P1;SDS_P2;PMS_P1;PMS_P2;Temp;Humidity;BMP_temperature;BMP_pressure;BME280_temperature;BME280_humidity;BME280_pressure;Samples;Min_cycle;Max_cycle;Signal;HPM_P1;HPM_P2
2021/06/15 00:01:30;;;;;;;6.65;2.80;;;;;;;20.18;56.02;100014.28;2211285;40;20034;-78
2021/06/15 00:03:02;;;;;;;6.78;3.38;;;;;;;20.06;56.66;100009.47;2212219;40;20057;-79
2021/06/15 00:04:32;;;;;;;8.68;3.30;;;;;;;19.93;57.23;100010.31;2206482;40;20498;-79
2021/06/15 00:06:05;;;;;;;5.75;2.88;;;;;;;19.76;57.34;100017.97;2207086;40;20030;-77
2021/06/15 00:07:36;;;;;;;5.35;2.92;;;;;;;19.61;57.92;100025.47;2207279;40;20026;-79
2021/06/15 00:09:08;;;;;;;6.32;3.33;;;;;;;19.44;58.42;100028.56;2204514;40;20048;-80
2021/06/15 00:10:40;;;;;;;7.88;4.40;;;;;;;19.36;58.43;100019.75;2201741;40;20061;-82
2021/06/15 00:12:11;;;;;;;7.13;3.05;;;;;;;19.31;58.40;100028.50;2202247;40;20527;-80
2021/06/15 00:13:43;;;;;;;5.75;2.97;;;;;;;19.25;58.65;100018.47;2194885;40;20082;-80
2021/06/15 00:15:17;;;;;;;6.93;3.45;;;;;;;19.16;58.73;100021.38;2188476;40;20050;-81
2021/06/15 00:16:49;;;;;;;9.75;3.65;;;;;;;19.07;58.75;100019.88;2191307;40;20035;-81
2021/06/15 00:18:21;;;;;;;7.80;3.65;;;;;;;19.07;59.01;100021.72;2197208;40;20038;-80
2021/06/15 00:19:53;;;;;;;5.65;2.85;;;;;;;19.04;59.10;100016.69;2203540;40;20035;-81
2021/06/15 00:21:25;;;;;;;10.68;3.95;;;;;;;19.02;59.29;100016.91;2208857;40;20054;-78
2021/06/15 00:22:59;;;;;;;7.28;3.47;;;;;;;18.97;59.50;100025.63;2189556;40;20051;-78
2021/06/15 00:24:40;;;;;;;7.20;3.40;;;;;;;18.94;59.44;100014.38;2189513;40;20066;-77
2021/06/15 00:26:13;;;;;;;8.68;3.50;;;;;;;18.90;59.51;100013.91;2171388;41;20231;-78
2021/06/15 00:27:46;;;;;;;9.18;3.42;;;;;;;18.89;59.79;100019.53;2201360;40;20049;-78
2021/06/15 00:29:18;;;;;;;9.27;3.40;;;;;;;18.90;59.65;100019.31;2208851;40;20026;-79
2021/06/15 00:30:51;;;;;;;8.68;3.70;;;;;;;18.88;59.66;100012.44;2206697;40;20046;-78
2021/06/15 00:32:22;;;;;;;8.77;3.53;;;;;;;18.86;59.91;100026.16;2208772;40;20046;-79
2021/06/15 00:33:54;;;;;;;6.90;3.55;;;;;;;18.84;59.83;100020.13;2206947;40;20045;-79
2021/06/15 00:35:25;;;;;;;8.05;3.85;;;;;;;18.83;60.08;100019.28;2207448;40;20031;-77
2021/06/15 00:36:57;;;;;;;8.85;3.25;;;;;;;18.85;59.75;100014.50;2205695;40;20117;-78
2021/06/15 00:38:29;;;;;;;8.88;3.72;;;;;;;18.85;59.67;100019.91;2212509;40;20037;-78
2021/06/15 00:40:01;;;;;;;5.95;3.10;;;;;;;18.92;59.73;100016.41;2207990;40;20022;-78
2021/06/15 00:41:32;;;;;;;10.15;2.97;;;;;;;19.00;59.72;100018.97;2202573;40;20023;-78
2021/06/15 00:43:03;;;;;;;6.32;2.97;;;;;;;19.07;59.37;100016.31;2201192;40;20050;-79
2021/06/15 00:44:36;;;;;;;7.68;3.53;;;;;;;19.10;59.41;100016.72;2203086;40;20075;-78
2021/06/15 00:46:09;;;;;;;5.45;2.88;;;;;;;19.14;59.65;100018.00;2199790;40;20051;-80
2021/06/15 00:47:46;;;;;;;11.55;3.58;;;;;;;19.16;59.82;100021.38;2190064;40;20032;-79
2021/06/15 00:49:25;;;;;;;6.85;3.15;;;;;;;19.17;59.55;100019.47;2188764;40;20068;-79
2021/06/15 00:50:57;;;;;;;6.18;3.20;;;;;;;19.12;59.92;100014.66;2189949;40;20044;-80
2021/06/15 00:52:29;;;;;;;6.60;3.30;;;;;;;19.10;60.38;100013.19;2196180;40;20042;-77
2021/06/15 00:54:01;;;;;;;8.57;3.60;;;;;;;19.08;60.29;100026.94;2208319;40;20034;-78
2021/06/15 00:55:33;;;;;;;7.43;3.72;;;;;;;18.99;60.25;100022.72;2200365;40;20022;-79
2021/06/15 00:57:05;;;;;;;8.27;3.85;;;;;;;18.83;61.14;100011.16;2201912;40;20058;-78
2021/06/15 00:58:37;;;;;;;9.02;3.40;;;;;;;18.63;61.59;100015.59;2202646;40;20350;-78
2021/06/15 01:00:10;;;;;;;6.68;3.17;;;;;;;18.46;62.12;100017.81;2206360;40;20042;-78
2021/06/15 01:01:43;;;;;;;7.53;3.63;;;;;;;18.37;62.49;100017.94;2206527;40;20049;-79
2021/06/15 01:03:17;;;;;;;8.73;3.55;;;;;;;18.33;62.30;100016.66;2206405;40;20046;-80
2021/06/15 01:04:49;;;;;;;7.68;3.67;;;;;;;18.28;62.51;100012.88;2203714;40;20676;-82
2021/06/15 01:06:29;;;;;;;8.13;3.33;;;;;;;18.30;62.52;100017.06;2200966;40;20054;-81
2021/06/15 01:08:07;;;;;;;5.35;3.28;;;;;;;18.27;62.49;100014.75;2200331;40;20043;-80
2021/06/15 01:09:45;;;;;;;6.13;3.70;;;;;;;18.26;62.58;100004.97;2197244;40;20051;-80
2021/06/15 01:11:27;;;;;;;8.63;3.63;;;;;;;18.20;63.13;100016.56;2196788;40;20055;-79
2021/06/15 01:13:13;;;;;;;9.35;3.97;;;;;;;18.13;63.18;100016.53;2200915;40;20043;-78
2021/06/15 01:15:01;;;;;;;7.45;3.45;;;;;;;18.07;63.40;100018.13;2199573;40;20030;-79
2021/06/15 01:16:36;;;;;;;8.32;3.70;;;;;;;18.05;63.76;100011.22;2198246;40;20035;-80
2021/06/15 01:18:13;;;;;;;6.95;3.20;;;;;;;18.01;63.66;100020.78;2198914;40;20050;-80
2021/06/15 01:19:56;;;;;;;7.75;3.80;;;;;;;17.88;63.88;100008.75;2140828;41;20034;-80
2021/06/15 01:21:28;;;;;;;5.68;3.17;;;;;;;17.77;64.47;100011.97;2177213;40;20041;-79
2021/06/15 01:23:50;;;;;;;7.22;3.95;;;;;;;17.67;65.03;100011.44;2206720;40;20050;-79
2021/06/15 01:25:27;;;;;;;9.45;3.85;;;;;;;17.62;65.34;100009.31;2192685;40;20042;-80
2021/06/15 01:27:32;;;;;;;8.18;3.75;;;;;;;17.63;65.35;100011.00;2203641;40;20093;-79
2021/06/15 01:29:09;;;;;;;5.72;3.40;;;;;;;17.57;65.54;100009.91;2194126;40;20379;-79
2021/06/15 01:30:53;;;;;;;7.60;3.72;;;;;;;17.53;65.67;100014.03;2194048;40;20058;-79
2021/06/15 01:32:30;;;;;;;9.05;4.05;;;;;;;17.53;65.70;100011.34;2190687;40;20131;-79
2021/06/15 01:34:05;;;;;;;9.45;4.07;;;;;;;17.53;65.82;100011.34;2188930;40;20054;-80
2021/06/15 01:35:38;;;;;;;7.97;4.13;;;;;;;17.53;65.85;100019.44;2190516;40;20047;-78
2021/06/15 01:37:14;;;;;;;7.78;4.53;;;;;;;17.52;65.75;100016.94;2192637;40;20042;-78
2021/06/15 01:38:52;;;;;;;8.45;3.78;;;;;;;17.52;65.71;100017.75;2199121;40;20135;-78
2021/06/15 01:40:30;;;;;;;6.28;3.45;;;;;;;17.51;65.39;100018.78;2195693;40;20043;-79
2021/06/15 01:42:09;;;;;;;8.75;3.15;;;;;;;17.50;65.51;100011.69;2196459;40;20023;-79
2021/06/15 01:43:44;;;;;;;7.07;3.88;;;;;;;17.45;65.64;100008.75;2197950;40;20046;-80
2021/06/15 01:45:20;;;;;;;9.38;4.03;;;;;;;17.38;65.71;100011.38;2192011;40;20039;-80
2021/06/15 01:46:58;;;;;;;8.43;3.97;;;;;;;17.33;65.89;100015.66;2190594;40;20031;-79
2021/06/15 01:48:37;;;;;;;7.28;3.85;;;;;;;17.27;65.99;100018.13;2190259;40;20036;-80
2021/06/15 01:50:10;;;;;;;8.20;3.70;;;;;;;17.24;66.28;100013.09;2196599;40;20046;-79
2021/06/15 01:51:44;;;;;;;6.15;3.88;;;;;;;17.19;66.73;100010.13;2196058;40;20048;-79
2021/06/15 01:53:18;;;;;;;9.15;3.80;;;;;;;17.15;66.93;100008.81;2190380;40;20078;-80
2021/06/15 01:54:51;;;;;;;6.68;3.55;;;;;;;17.12;67.12;100009.19;2190146;40;20046;-79
2021/06/15 01:56:23;;;;;;;7.13;3.70;;;;;;;17.16;67.14;100010.50;2197010;40;20561;-80
2021/06/15 01:57:56;;;;;;;6.03;3.28;;;;;;;17.31;66.57;100014.00;2195143;40;20047;-79
2021/06/15 01:59:29;;;;;;;8.20;3.58;;;;;;;17.37;66.36;100011.56;2190496;40;20106;-79
2021/06/15 02:01:03;;;;;;;9.13;3.85;;;;;;;17.35;66.42;100013.63;2192463;40;20078;-80
2021/06/15 02:02:37;;;;;;;6.80;3.50;;;;;;;17.33;66.25;100004.88;2198815;40;20035;-78
2021/06/15 02:04:08;;;;;;;8.77;3.83;;;;;;;17.32;66.21;100009.44;2202982;40;20023;-78
2021/06/15 02:05:44;;;;;;;6.53;3.28;;;;;;;17.30;66.41;100006.91;2208067;40;20069;-78
2021/06/15 02:07:25;;;;;;;5.97;3.55;;;;;;;17.34;66.06;100017.34;2205543;40;20050;-78
2021/06/15 02:08:58;;;;;;;5.38;2.88;;;;;;;17.33;65.69;100005.72;2207676;40;20037;-77
2021/06/15 02:10:33;;;;;;;8.32;3.85;;;;;;;17.39;65.90;100004.94;2206973;40;20042;-78
2021/06/15 02:12:05;;;;;;;8.82;4.20;;;;;;;17.41;65.70;100002.03;2208104;40;20047;-78
2021/06/15 02:13:42;;;;;;;7.25;4.20;;;;;;;17.46;65.63;100007.72;2203857;40;20042;-77
2021/06/15 02:15:16;;;;;;;7.25;3.50;;;;;;;17.49;65.49;99999.22;2201629;40;20084;-78
2021/06/15 02:16:54;;;;;;;6.50;3.20;;;;;;;17.48;65.60;100007.53;2202879;40;20105;-79
2021/06/15 02:18:28;;;;;;;7.60;4.40;;;;;;;17.43;65.77;100000.00;2200743;40;20062;-78
2021/06/15 02:20:00;;;;;;;7.45;3.95;;;;;;;17.41;66.05;99999.34;2203215;40;20046;-78
2021/06/15 02:21:33;;;;;;;7.10;3.08;;;;;;;17.37;66.49;99992.66;2200874;40;20030;-78
2021/06/15 02:23:06;;;;;;;7.47;3.78;;;;;;;17.37;66.45;99998.06;2198852;40;20046;-80
2021/06/15 02:24:42;;;;;;;9.75;3.65;;;;;;;17.35;66.75;99998.22;2198452;40;20054;-79
2021/06/15 02:26:17;;;;;;;8.93;4.30;;;;;;;17.33;66.68;100008.41;2198468;40;20059;-81
2021/06/15 02:27:48;;;;;;;9.48;4.00;;;;;;;17.24;67.10;100002.28;2194561;40;20046;-79
2021/06/15 02:29:20;;;;;;;7.82;4.20;;;;;;;17.22;67.25;100000.78;2196425;40;20046;-78
2021/06/15 02:30:52;;;;;;;6.32;3.70;;;;;;;17.23;66.99;100008.69;2197845;40;20058;-79
2021/06/15 02:32:32;;;;;;;6.35;3.38;;;;;;;17.24;66.88;100004.97;2205415;40;20038;-77
2021/06/15 02:34:07;;;;;;;6.18;3.92;;;;;;;17.20;66.95;99998.25;2205291;40;20132;-78
2021/06/15 02:35:44;;;;;;;6.97;3.17;;;;;;;17.22;66.83;100003.50;2203717;40;20038;-79
2021/06/15 02:37:23;;;;;;;9.88;4.15;;;;;;;17.24;66.88;100001.44;2203551;40;20042;-77
2021/06/15 02:38:57;;;;;;;7.75;3.72;;;;;;;17.26;66.82;100004.78;2205008;40;20153;-80
2021/06/15 02:40:32;;;;;;;8.20;3.65;;;;;;;17.26;66.52;100007.47;2195240;40;20049;-78
2021/06/15 02:42:08;;;;;;;9.40;3.97;;;;;;;17.21;66.69;100012.63;2197982;40;20038;-79
2021/06/15 02:43:41;;;;;;;9.88;3.97;;;;;;;17.19;67.21;99999.31;2197335;40;20065;-79
2021/06/15 02:45:14;;;;;;;8.35;4.30;;;;;;;17.20;66.88;100000.16;2194984;40;20031;-81
2021/06/15 02:46:49;;;;;;;12.63;3.90;;;;;;;17.20;66.89;99998.25;2190587;40;20377;-80
2021/06/15 02:48:23;;;;;;;8.35;4.25;;;;;;;17.21;67.02;99999.13;2194890;40;20035;-79
2021/06/15 02:49:58;;;;;;;8.30;4.07;;;;;;;17.20;67.03;99998.25;2200644;40;20102;-79
2021/06/15 02:51:34;;;;;;;9.80;4.25;;;;;;;17.18;67.00;99996.78;2199333;40;20062;-78
2021/06/15 02:53:07;;;;;;;8.23;3.65;;;;;;;17.14;66.99;99994.47;2204380;40;20041;-79
2021/06/15 02:54:43;;;;;;;12.48;4.35;;;;;;;17.16;67.01;99988.88;2202452;40;20051;-79
2021/06/15 02:56:20;;;;;;;11.15;4.30;;;;;;;17.16;67.21;99994.28;2205080;40;20054;-78
2021/06/15 02:57:51;;;;;;;7.95;3.53;;;;;;;17.13;67.33;100000.06;2201517;40;20034;-80
2021/06/15 02:59:23;;;;;;;7.15;3.75;;;;;;;17.13;67.14;100008.16;2199829;40;20043;-79
2021/06/15 03:00:55;;;;;;;9.25;4.30;;;;;;;17.13;67.30;100000.91;2200983;40;20031;-80
2021/06/15 03:02:26;;;;;;;7.45;4.00;;;;;;;17.13;67.23;100005.47;2198696;40;20039;-79
2021/06/15 03:04:00;;;;;;;6.72;3.47;;;;;;;17.12;67.65;100009.19;2196994;40;20041;-80
2021/06/15 03:05:31;;;;;;;8.73;4.20;;;;;;;17.13;67.60;100013.56;2200883;40;20086;-79
2021/06/15 03:07:03;;;;;;;6.25;3.60;;;;;;;17.14;67.59;100012.53;2157889;40;20051;-78
2021/06/15 03:08:36;;;;;;;9.63;5.03;;;;;;;17.13;67.51;100008.16;2188639;40;20038;-78
2021/06/15 03:10:09;;;;;;;10.05;4.57;;;;;;;17.11;67.62;100007.50;2204451;40;20046;-77
2021/06/15 03:11:45;;;;;;;8.20;3.97;;;;;;;17.08;67.70;100002.50;2206261;40;20089;-80
2021/06/15 03:13:24;;;;;;;12.27;4.18;;;;;;;17.06;67.91;100005.38;2203925;40;20054;-78
2021/06/15 03:15:01;;;;;;;7.90;3.92;;;;;;;16.97;68.07;100004.66;2202850;40;20057;-79
2021/06/15 03:16:36;;;;;;;7.75;3.88;;;;;;;16.94;68.21;100012.28;2205690;40;20085;-81
2021/06/15 03:18:12;;;;;;;9.55;4.03;;;;;;;16.96;67.88;100015.63;2206143;40;20046;-80
2021/06/15 03:19:52;;;;;;;7.25;3.72;;;;;;;16.96;67.92;100019.16;2201557;40;20054;-80
2021/06/15 03:21:26;;;;;;;9.70;4.15;;;;;;;16.95;67.89;100003.16;2202474;40;20111;-82
2021/06/15 03:23:06;;;;;;;10.30;4.10;;;;;;;16.96;68.17;100013.78;2205356;40;20047;-80
2021/06/15 03:24:44;;;;;;;9.32;5.18;;;;;;;16.92;68.12;100012.44;2203017;40;20042;-80
2021/06/15 03:26:22;;;;;;;10.63;4.53;;;;;;;16.87;68.20;100012.16;2201915;40;20095;-79
2021/06/15 03:27:58;;;;;;;7.35;4.00;;;;;;;16.84;68.14;100007.13;2201271;40;20050;-80
2021/06/15 03:29:32;;;;;;;7.50;3.92;;;;;;;16.82;68.08;100014.56;2205909;40;20053;-80
2021/06/15 03:31:05;;;;;;;9.95;4.13;;;;;;;16.79;68.51;100010.38;2204751;40;20071;-78
2021/06/15 03:32:44;;;;;;;6.65;3.42;;;;;;;16.78;68.41;100013.28;2208060;40;20033;-84
2021/06/15 03:34:23;;;;;;;7.60;3.67;;;;;;;16.82;68.52;100010.03;2151314;40;20033;-83
2021/06/15 03:36:00;;;;;;;7.20;3.22;;;;;;;16.80;68.25;100005.84;2193581;40;20031;-84
2021/06/15 03:37:35;;;;;;;9.48;4.13;;;;;;;16.78;68.31;100002.50;2199882;40;20376;-84
2021/06/15 03:39:09;;;;;;;8.27;4.13;;;;;;;16.76;68.31;100010.78;2203395;40;20038;-82
2021/06/15 03:40:43;;;;;;;14.77;3.97;;;;;;;16.74;68.58;100014.66;2201261;40;20505;-83
2021/06/15 03:42:22;;;;;;;9.57;4.43;;;;;;;16.73;68.80;100010.28;2202411;40;20054;-83
2021/06/15 03:43:58;;;;;;;7.63;4.38;;;;;;;16.71;68.73;100018.59;2203602;40;20031;-84
2021/06/15 03:45:33;;;;;;;10.18;4.20;;;;;;;16.71;68.70;100023.97;2197340;40;20022;-85
2021/06/15 03:47:06;;;;;;;6.50;3.78;;;;;;;16.72;68.52;100024.84;2203600;40;20022;-84
2021/06/15 03:48:42;;;;;;;7.68;3.85;;;;;;;16.74;68.39;100011.97;2202032;40;20035;-84
2021/06/15 03:50:17;;;;;;;7.97;3.95;;;;;;;16.80;68.50;100016.63;2203775;40;20050;-84
2021/06/15 03:51:55;;;;;;;6.30;3.63;;;;;;;16.81;68.12;100011.03;2202179;40;20097;-86
2021/06/15 03:53:30;;;;;;;9.20;4.03;;;;;;;16.86;68.14;100015.88;2203207;40;20031;-86
2021/06/15 03:55:04;;;;;;;9.10;4.32;;;;;;;16.85;67.88;100008.81;2202382;40;20023;-84
2021/06/15 03:56:38;;;;;;;7.35;3.90;;;;;;;16.83;68.06;100019.81;2203586;40;20057;-87
2021/06/15 03:58:11;;;;;;;7.70;3.63;;;;;;;16.88;67.94;100023.78;2202066;40;20034;-86
2021/06/15 03:59:47;;;;;;;6.45;3.83;;;;;;;16.88;68.06;100023.78;2203346;40;20027;-85
2021/06/15 04:01:20;;;;;;;7.45;3.72;;;;;;;16.86;68.07;100023.97;2202020;40;20038;-87
2021/06/15 04:02:56;;;;;;;7.50;4.13;;;;;;;16.92;68.09;100017.00;2209625;40;20034;-86
2021/06/15 04:04:31;;;;;;;7.88;3.92;;;;;;;16.91;67.68;100009.94;2207313;40;20041;-86
2021/06/15 04:06:04;;;;;;;8.73;3.60;;;;;;;16.92;67.70;100009.72;2209712;40;20031;-86
2021/06/15 04:07:38;;;;;;;9.07;4.63;;;;;;;16.93;67.55;100011.44;2195111;40;20041;-86
2021/06/15 04:09:12;;;;;;;8.52;4.07;;;;;;;16.93;67.74;100021.38;2203598;40;20526;-86
2021/06/15 04:10:47;;;;;;;7.30;3.70;;;;;;;16.92;67.79;100020.53;2201557;40;20051;-85
2021/06/15 04:12:24;;;;;;;10.82;3.88;;;;;;;16.92;67.74;100023.22;2202261;40;20031;-85
2021/06/15 04:13:58;;;;;;;7.95;4.35;;;;;;;16.94;67.74;100029.31;2203546;40;20037;-86
2021/06/15 04:15:31;;;;;;;30.20;5.72;;;;;;;16.92;67.75;100030.50;2201939;40;20038;-78
2021/06/15 04:17:06;;;;;;;9.68;5.00;;;;;;;16.88;67.83;100030.03;2206068;40;20053;-81
2021/06/15 04:18:43;;;;;;;11.63;4.60;;;;;;;16.83;67.92;100033.31;2202231;40;20257;-80
2021/06/15 04:20:20;;;;;;;11.65;4.63;;;;;;;16.73;68.09;100035.44;2205406;40;20037;-80
2021/06/15 04:21:54;;;;;;;7.65;3.80;;;;;;;16.70;68.17;100027.69;2201676;40;20026;-79
2021/06/15 04:23:34;;;;;;;8.13;4.15;;;;;;;16.70;67.92;100033.09;2203436;40;20540;-79
2021/06/15 04:25:10;;;;;;;9.85;4.93;;;;;;;16.75;68.02;100043.34;2202225;40;20042;-79
2021/06/15 04:26:42;;;;;;;7.57;4.85;;;;;;;16.78;67.94;100043.81;2203422;40;20165;-79
2021/06/15 04:28:15;;;;;;;13.25;5.25;;;;;;;16.79;67.68;100047.34;2202111;40;20031;-83
2021/06/15 04:29:47;;;;;;;8.57;4.90;;;;;;;16.78;67.65;100045.69;2203436;40;20627;-80
2021/06/15 04:31:23;;;;;;;9.57;5.30;;;;;;;16.80;67.53;100043.63;2202065;40;20035;-79
2021/06/15 04:32:56;;;;;;;8.90;4.28;;;;;;;16.78;67.58;100040.28;2203919;40;20581;-80
2021/06/15 04:34:30;;;;;;;10.50;4.55;;;;;;;16.83;67.50;100048.66;2202926;40;20515;-85
2021/06/15 04:36:05;;;;;;;8.15;4.35;;;;;;;16.84;67.27;100044.91;2204462;40;20027;-84
2021/06/15 04:37:38;;;;;;;8.32;4.43;;;;;;;16.89;67.37;100050.63;2202675;40;20046;-83
2021/06/15 04:39:14;;;;;;;9.52;4.45;;;;;;;16.92;67.10;100050.22;2204634;40;20039;-83
2021/06/15 04:40:50;;;;;;;8.10;4.57;;;;;;;16.94;67.02;100048.22;2203661;40;20041;-84
2021/06/15 04:42:32;;;;;;;9.48;5.20;;;;;;;16.97;67.20;100050.56;2203135;40;20030;-85
2021/06/15 04:44:07;;;;;;;11.75;4.97;;;;;;;16.97;67.17;100052.41;2204077;40;20181;-86
2021/06/15 04:45:41;;;;;;;7.57;4.63;;;;;;;16.95;67.00;100047.19;2202925;40;20035;-85
2021/06/15 04:47:16;;;;;;;11.23;5.07;;;;;;;16.98;66.79;100054.94;2204451;40;20094;-82
2021/06/15 04:48:51;;;;;;;7.45;4.60;;;;;;;17.04;66.63;100052.50;2203080;40;20042;-84
2021/06/15 04:50:28;;;;;;;8.40;4.72;;;;;;;17.10;66.50;100051.75;2204458;40;20047;-86
2021/06/15 04:52:03;;;;;;;7.38;3.90;;;;;;;17.13;66.34;100056.78;2202658;40;20046;-86
2021/06/15 04:53:39;;;;;;;7.93;4.53;;;;;;;17.17;66.57;100043.72;2204206;40;20026;-79
2021/06/15 04:55:13;;;;;;;7.15;4.00;;;;;;;17.20;66.38;100044.19;2203111;40;20043;-80
2021/06/15 04:56:48;;;;;;;9.93;4.65;;;;;;;17.25;66.06;100049.88;2208741;40;20034;-80
2021/06/15 04:58:21;;;;;;;9.10;4.63;;;;;;;17.28;66.05;100043.25;2209234;40;20030;-80
2021/06/15 04:59:57;;;;;;;7.90;4.13;;;;;;;17.36;65.99;100045.84;2210259;40;20045;-78
2021/06/15 05:01:30;;;;;;;9.25;4.38;;;;;;;17.38;65.61;100048.38;2209139;40;20030;-79
2021/06/15 05:03:03;;;;;;;12.38;4.70;;;;;;;17.31;65.88;100049.13;2204738;40;20031;-81
2021/06/15 05:04:36;;;;;;;10.05;4.38;;;;;;;17.35;65.84;100048.75;2197863;40;20028;-80
2021/06/15 05:06:10;;;;;;;10.13;4.50;;;;;;;17.41;65.47;100050.69;2203955;40;20039;-79
2021/06/15 05:07:41;;;;;;;8.68;4.22;;;;;;;17.51;65.25;100050.38;2196757;40;20046;-79
2021/06/15 05:09:15;;;;;;;8.73;4.30;;;;;;;17.54;65.18;100050.84;2197099;40;20035;-79
2021/06/15 05:10:51;;;;;;;7.88;4.43;;;;;;;17.61;65.05;100054.44;2198132;40;20027;-81
2021/06/15 05:12:25;;;;;;;9.27;5.20;;;;;;;17.65;64.80;100051.38;2196694;40;20027;-79
2021/06/15 05:14:00;;;;;;;6.93;4.25;;;;;;;17.63;64.95;100048.84;2204158;40;20035;-80
2021/06/15 05:15:31;;;;;;;15.93;5.30;;;;;;;17.62;64.77;100050.72;2202350;40;20034;-81
2021/06/15 05:17:08;;;;;;;9.40;4.40;;;;;;;17.64;65.05;100047.00;2204227;40;20034;-81
2021/06/15 05:18:40;;;;;;;10.50;5.05;;;;;;;17.70;64.59;100054.31;2202868;40;20042;-80
2021/06/15 05:20:13;;;;;;;12.02;4.40;;;;;;;17.77;64.83;100047.13;2202643;40;20034;-80
2021/06/15 05:21:53;;;;;;;7.97;4.57;;;;;;;17.82;64.41;100042.00;2202694;40;20043;-79
2021/06/15 05:23:30;;;;;;;10.43;5.30;;;;;;;17.89;63.89;100052.88;2198231;40;20044;-79
2021/06/15 05:25:03;;;;;;;13.02;4.85;;;;;;;17.93;63.91;100056.84;2197112;40;20035;-80
2021/06/15 05:26:37;;;;;;;14.43;5.05;;;;;;;17.98;63.75;100056.31;2198156;40;20415;-86
2021/06/15 05:28:08;;;;;;;7.63;5.15;;;;;;;18.01;63.96;100058.63;2196328;40;20031;-86
2021/06/15 05:29:39;;;;;;;11.43;5.32;;;;;;;18.04;63.41;100052.84;2198128;40;20030;-86
2021/06/15 05:31:11;;;;;;;12.77;5.65;;;;;;;18.06;63.26;100058.88;2196826;40;20050;-86
2021/06/15 05:32:43;;;;;;;9.77;5.10;;;;;;;18.08;63.31;100056.81;2198081;40;20047;-86
2021/06/15 05:34:13;;;;;;;14.65;6.18;;;;;;;18.12;62.91;100059.97;2196695;40;20042;-86
2021/06/15 05:35:45;;;;;;;15.27;5.55;;;;;;;18.17;62.80;100061.06;2198314;40;20039;-88
2021/06/15 05:37:19;;;;;;;14.23;5.70;;;;;;;18.19;62.98;100059.00;2196693;40;20039;-86
2021/06/15 05:38:50;;;;;;;13.10;5.13;;;;;;;18.24;62.94;100072.78;2198366;40;20558;-87
2021/06/15 05:40:21;;;;;;;12.48;4.82;;;;;;;18.28;62.53;100065.09;2196575;40;20031;-86
2021/06/15 05:41:54;;;;;;;8.25;4.22;;;;;;;18.35;62.44;100067.88;2198055;40;20035;-83
2021/06/15 05:43:26;;;;;;;10.85;4.95;;;;;;;18.40;62.48;100065.44;2196808;40;20039;-85
2021/06/15 05:44:58;;;;;;;9.68;4.70;;;;;;;18.47;62.03;100066.31;2198049;40;20046;-85
2021/06/15 05:46:30;;;;;;;10.05;4.28;;;;;;;18.53;61.80;100073.63;2197187;40;20037;-85
2021/06/15 05:48:02;;;;;;;15.45;4.93;;;;;;;18.59;61.74;100063.06;2198117;40;20038;-84
2021/06/15 05:49:33;;;;;;;12.05;5.90;;;;;;;18.62;61.78;100068.94;2196619;40;20043;-85
2021/06/15 05:51:05;;;;;;;13.13;6.15;;;;;;;18.68;61.69;100067.31;2197961;40;20039;-84
2021/06/15 05:52:36;;;;;;;13.80;5.03;;;;;;;18.70;61.16;100062.53;2196686;40;20059;-84
2021/06/15 05:54:08;;;;;;;12.00;4.93;;;;;;;18.71;60.99;100062.34;2198055;40;20038;-84
2021/06/15 05:55:40;;;;;;;12.88;5.47;;;;;;;18.79;60.99;100064.06;2196660;40;20039;-84
2021/06/15 05:57:13;;;;;;;12.38;5.97;;;;;;;18.84;60.98;100067.00;2198137;40;20450;-83
2021/06/15 05:58:45;;;;;;;13.55;6.47;;;;;;;18.86;60.80;100070.34;2196909;40;20771;-85
2021/06/15 06:00:18;;;;;;;11.57;5.40;;;;;;;18.92;60.71;100062.44;2196763;40;20050;-86
2021/06/15 06:01:49;;;;;;;12.70;5.03;;;;;;;18.96;60.37;100066.47;2204132;40;20035;-85
2021/06/15 06:03:28;;;;;;;22.90;6.63;;;;;;;18.98;60.49;100067.13;2202912;40;20039;-81
2021/06/15 06:08:04;;;;;;;11.55;6.43;;;;;;;19.01;60.64;100066.69;2203791;40;20058;-80
2021/06/15 06:08:51;;;;;;;17.42;5.90;;;;;;;19.02;60.36;100068.38;2204483;40;20030;-81
2021/06/15 06:10:23;;;;;;;13.65;6.47;;;;;;;19.04;60.39;100069.00;2197876;40;20039;-80
2021/06/15 06:11:54;;;;;;;8.82;5.32;;;;;;;19.08;60.27;100069.44;2197891;40;20615;-82
2021/06/15 06:13:27;;;;;;;8.10;5.00;;;;;;;19.13;60.11;100070.53;2201615;40;20037;-81
2021/06/15 06:14:59;;;;;;;10.45;5.57;;;;;;;19.18;60.04;100070.75;2204078;40;20661;-80
2021/06/15 06:16:31;;;;;;;11.13;6.82;;;;;;;19.23;60.03;100072.84;2204166;40;20053;-81
2021/06/15 06:18:07;;;;;;;10.82;6.45;;;;;;;19.28;59.63;100072.25;2210290;40;20074;-80
2021/06/15 06:19:40;;;;;;;12.82;6.45;;;;;;;19.36;59.81;100073.97;2202863;40;20050;-80
2021/06/15 06:21:13;;;;;;;16.67;6.43;;;;;;;19.40;59.34;100065.22;2203069;40;20047;-80
2021/06/15 06:22:44;;;;;;;12.60;5.53;;;;;;;19.43;59.60;100061.25;2209885;40;20462;-80
2021/06/15 06:24:17;;;;;;;10.45;5.25;;;;;;;19.48;59.34;100072.34;2208699;40;20114;-80
2021/06/15 06:25:49;;;;;;;9.98;5.40;;;;;;;19.52;59.32;100064.63;2209992;40;20039;-79
2021/06/15 06:27:20;;;;;;;14.13;5.40;;;;;;;19.58;59.02;100061.09;2208744;40;20035;-79
2021/06/15 06:28:54;;;;;;;15.77;5.30;;;;;;;19.65;59.17;100072.81;2210142;40;20059;-81
2021/06/15 06:30:24;;;;;;;14.07;5.60;;;;;;;19.73;59.17;100074.50;2208831;40;20030;-80
2021/06/15 06:31:56;;;;;;;8.93;5.10;;;;;;;19.77;58.98;100076.59;2210174;40;20030;-81
2021/06/15 06:33:28;;;;;;;14.98;6.50;;;;;;;19.85;58.56;100072.03;2207763;40;20042;-81
2021/06/15 06:35:01;;;;;;;11.52;5.68;;;;;;;19.89;58.51;100071.44;2203660;40;20053;-80
2021/06/15 06:36:33;;;;;;;10.50;4.30;;;;;;;19.95;58.50;100078.78;2202549;40;20055;-81
2021/06/15 06:38:04;;;;;;;9.15;4.53;;;;;;;20.08;58.38;100066.25;2203968;40;20031;-80
2021/06/15 06:39:36;;;;;;;8.70;4.53;;;;;;;20.17;57.90;100065.00;2202630;40;20091;-81
2021/06/15 06:41:08;;;;;;;10.40;4.78;;;;;;;20.27;57.73;100076.28;2204011;40;20038;-82
2021/06/15 06:42:39;;;;;;;9.80;4.10;;;;;;;20.33;57.77;100061.03;2202488;40;20097;-87
2021/06/15 06:44:13;;;;;;;10.48;4.25;;;;;;;20.40;57.31;100063.75;2204168;40;20099;-86
2021/06/15 06:45:45;;;;;;;9.90;3.92;;;;;;;20.46;57.07;100062.09;2209465;40;20067;-85
2021/06/15 06:47:16;;;;;;;9.80;4.28;;;;;;;20.55;56.75;100056.22;2197226;40;20029;-86
2021/06/15 06:48:48;;;;;;;12.68;4.30;;;;;;;20.62;56.46;100067.09;2185147;40;20035;-85
2021/06/15 06:50:20;;;;;;;7.45;3.92;;;;;;;20.74;56.13;100056.44;2185478;40;20028;-87
2021/06/15 06:51:53;;;;;;;15.13;7.40;;;;;;;20.85;55.92;100049.53;2173545;41;20032;-87
2021/06/15 06:53:26;;;;;;;9.85;5.03;;;;;;;20.97;55.66;100058.69;2181860;40;20024;-87
2021/06/15 06:54:57;;;;;;;14.57;5.90;;;;;;;21.05;55.27;100063.06;2177798;40;21335;-87
2021/06/15 06:56:29;;;;;;;12.77;4.93;;;;;;;21.15;55.01;100055.31;2184992;40;20035;-87
2021/06/15 06:58:01;;;;;;;7.47;4.35;;;;;;;21.25;54.42;100049.44;2185110;40;20044;-87
2021/06/15 06:59:37;;;;;;;9.13;4.68;;;;;;;21.40;54.10;100054.56;2185223;40;20837;-87
2021/06/15 07:01:08;;;;;;;9.65;4.60;;;;;;;21.51;53.88;100055.78;2173258;40;20026;-88
2021/06/15 07:02:43;;;;;;;10.80;4.13;;;;;;;21.61;53.49;100049.91;2167032;41;20037;-88
2021/06/15 07:04:14;;;;;;;6.03;3.70;;;;;;;21.76;53.29;100057.78;2167947;41;20033;-89
2021/06/15 07:05:46;;;;;;;9.55;4.25;;;;;;;21.81;52.59;100047.91;2176887;40;20913;-89
2021/06/15 07:07:16;;;;;;;7.63;3.88;;;;;;;21.90;51.97;100048.47;2187582;40;20020;-89
2021/06/15 07:08:49;;;;;;;11.43;4.00;;;;;;;21.96;51.90;100036.72;2178832;40;20032;-83
2021/06/15 07:10:22;;;;;;;15.38;4.57;;;;;;;22.10;51.46;100045.59;2188352;40;20046;-84
2021/06/15 07:11:53;;;;;;;12.65;4.32;;;;;;;22.24;51.27;100040.06;2198945;40;20035;-83
2021/06/15 07:13:25;;;;;;;11.02;4.35;;;;;;;22.36;51.21;100051.06;2202446;40;20046;-82
2021/06/15 07:14:59;;;;;;;18.92;5.35;;;;;;;22.44;50.75;100046.19;2203997;40;20059;-85
2021/06/15 07:16:30;;;;;;;14.95;5.25;;;;;;;22.54;50.53;100044.84;2202226;40;20043;-83
2021/06/15 07:18:02;;;;;;;7.03;3.47;;;;;;;22.63;50.27;100045.41;2203458;40;20097;-83
2021/06/15 07:19:32;;;;;;;8.68;3.72;;;;;;;22.81;49.83;100056.31;2202238;40;20038;-83
2021/06/15 07:21:05;;;;;;;12.13;3.53;;;;;;;22.95;49.67;100045.28;2203880;40;20374;-85